createdAt,value
2023-04-15T00:02:20.201Z,101169.69
2023-04-15T00:04:48.518Z,101175.06
2023-04-15T00:07:16.443Z,101173.34
2023-04-15T00:09:47.425Z,101176.00
2023-04-15T00:12:18.166Z,101175.13
2023-04-15T00:14:46.620Z,101174.38
2023-04-15T00:17:15.230Z,101158.47
2023-04-15T00:19:42.436Z,101170.19
2023-04-15T00:22:09.804Z,101178.28
2023-04-15T00:24:36.995Z,101176.66
2023-04-15T00:27:04.917Z,101181.16
2023-04-15T00:29:31.904Z,101172.16
2023-04-15T00:31:58.890Z,101182.56
2023-04-15T00:34:28.048Z,101171.22
2023-04-15T00:36:55.084Z,101177.81
2023-04-15T00:39:23.219Z,101176.31
2023-04-15T00:41:50.914Z,101180.31
2023-04-15T00:44:19.080Z,101183.56
2023-04-15T00:46:47.097Z,101177.66
2023-04-15T00:49:14.332Z,101180.59
2023-04-15T00:51:41.865Z,101175.16
2023-04-15T00:54:10.756Z,101181.78
2023-04-15T00:56:40.425Z,101187.22
2023-04-15T00:59:10.027Z,101189.00
2023-04-15T01:01:38.717Z,101168.41
2023-04-15T01:04:13.272Z,101190.09
2023-04-15T01:06:42.158Z,101185.03
2023-04-15T01:09:09.465Z,101176.19
2023-04-15T01:11:37.548Z,101187.59
2023-04-15T01:14:05.919Z,101191.56
2023-04-15T01:16:32.809Z,101177.22
2023-04-15T01:19:03.395Z,101188.50
2023-04-15T01:21:30.247Z,101181.97
2023-04-15T01:23:58.464Z,101180.25
2023-04-15T01:26:25.948Z,101179.56
2023-04-15T01:28:52.697Z,101191.03
2023-04-15T01:31:19.466Z,101180.97
2023-04-15T01:33:47.870Z,101184.97
2023-04-15T01:36:15.519Z,101197.50
2023-04-15T01:38:42.655Z,101197.94
2023-04-15T01:41:09.694Z,101196.47
2023-04-15T01:43:37.327Z,101200.25
2023-04-15T01:46:04.508Z,101197.84
2023-04-15T01:48:31.475Z,101185.94
2023-04-15T01:50:59.027Z,101182.81
2023-04-15T01:53:26.165Z,101202.63
2023-04-15T01:55:53.268Z,101207.91
2023-04-15T01:58:22.046Z,101196.34
2023-04-15T02:00:50.446Z,101205.13
2023-04-15T02:03:19.373Z,101202.41
2023-04-15T02:05:49.582Z,101201.56
2023-04-15T02:08:16.654Z,101200.22
2023-04-15T02:10:43.808Z,101183.97
2023-04-15T02:13:11.032Z,101201.84
2023-04-15T02:15:37.772Z,101178.47
2023-04-15T02:18:05.463Z,101200.69
2023-04-15T02:20:32.286Z,101203.34
2023-04-15T02:22:58.946Z,101212.88
2023-04-15T02:25:26.120Z,101212.81
2023-04-15T02:27:53.947Z,101193.78
2023-04-15T02:30:21.456Z,101219.09
2023-04-15T02:32:48.615Z,101206.25
2023-04-15T02:35:19.856Z,101213.81
2023-04-15T02:37:46.738Z,101229.34
2023-04-15T02:40:13.628Z,101220.50
2023-04-15T02:42:41.216Z,101220.00
2023-04-15T02:45:12.588Z,101223.09
2023-04-15T02:47:43.377Z,101223.09
2023-04-15T02:50:13.212Z,101211.94
2023-04-15T02:52:42.442Z,101219.72
2023-04-15T02:55:12.766Z,101216.13
2023-04-15T02:57:42.351Z,101233.69
2023-04-15T03:00:12.829Z,101239.47
2023-04-15T03:02:44.197Z,101244.13
2023-04-15T03:05:14.811Z,101242.34
2023-04-15T03:07:42.857Z,101228.91
2023-04-15T03:10:10.605Z,101228.75
2023-04-15T03:12:37.777Z,101234.09
2023-04-15T03:15:05.891Z,101244.72
2023-04-15T03:17:32.511Z,101224.34
2023-04-15T03:19:59.766Z,101251.75
2023-04-15T03:22:27.076Z,101248.56
2023-04-15T03:24:53.921Z,101246.78
2023-04-15T03:27:21.052Z,101252.63
2023-04-15T03:29:52.124Z,101256.59
2023-04-15T03:32:19.337Z,101249.25
2023-04-15T03:34:46.461Z,101271.03
2023-04-15T03:37:13.203Z,101240.13
2023-04-15T03:39:40.379Z,101271.13
2023-04-15T03:42:07.517Z,101272.75
2023-04-15T03:44:35.795Z,101262.97
2023-04-15T03:47:02.982Z,101254.13
2023-04-15T03:49:29.737Z,101252.91
2023-04-15T03:51:57.219Z,101275.88
2023-04-15T03:54:24.024Z,101282.97
2023-04-15T03:56:50.788Z,101286.81
2023-04-15T03:59:17.548Z,101283.25
2023-04-15T04:01:44.298Z,101294.50
2023-04-15T04:04:11.473Z,101282.78
2023-04-15T04:06:38.788Z,101300.28
2023-04-15T04:09:07.160Z,101295.81
2023-04-15T04:11:34.972Z,101302.22
2023-04-15T04:14:04.454Z,101310.91
2023-04-15T04:16:31.464Z,101309.53
2023-04-15T04:18:59.625Z,101306.31
2023-04-15T04:21:26.971Z,101307.94
2023-04-15T04:23:56.828Z,101311.56
2023-04-15T04:26:23.718Z,101308.81
2023-04-15T04:28:51.640Z,101316.69
2023-04-15T04:31:19.883Z,101315.00
2023-04-15T04:33:46.861Z,101321.69
2023-04-15T04:36:13.674Z,101306.16
2023-04-15T04:38:42.261Z,101333.69
2023-04-15T04:41:09.285Z,101334.03
2023-04-15T04:43:37.583Z,101332.69
2023-04-15T04:46:09.143Z,101343.63
2023-04-15T04:48:36.954Z,101334.41
2023-04-15T04:51:03.889Z,101348.97
2023-04-15T04:53:32.684Z,101357.25
2023-04-15T04:55:59.782Z,101364.25
2023-04-15T04:58:29.364Z,101365.28
2023-04-15T05:00:57.258Z,101373.78
2023-04-15T05:03:24.455Z,101372.59
2023-04-15T05:05:51.900Z,101391.75
2023-04-15T05:08:20.074Z,101379.66
2023-04-15T05:10:48.549Z,101396.97
2023-04-15T05:13:15.167Z,101396.28
2023-04-15T05:15:43.883Z,101406.75
2023-04-15T05:18:10.635Z,101399.84
2023-04-15T05:20:41.241Z,101406.81
2023-04-15T05:23:08.248Z,101404.06
2023-04-15T05:25:35.802Z,101406.19
2023-04-15T05:28:02.436Z,101410.31
2023-04-15T05:30:29.414Z,101413.69
2023-04-15T05:33:30.232Z,101424.28
2023-04-15T05:36:17.935Z,101420.91
2023-04-15T05:38:45.182Z,101416.38
2023-04-15T05:41:18.485Z,101433.31
2023-04-15T05:43:46.613Z,101455.56
2023-04-15T05:46:13.525Z,101442.78
2023-04-15T05:48:41.030Z,101450.31
2023-04-15T05:51:08.266Z,101458.94
2023-04-15T05:53:35.488Z,101463.41
2023-04-15T05:56:02.579Z,101447.84
2023-04-15T05:58:29.374Z,101462.31
2023-04-15T06:00:57.029Z,101470.22
2023-04-15T06:03:25.669Z,101474.13
2023-04-15T06:05:52.511Z,101463.69
2023-04-15T06:08:30.443Z,101447.59
2023-04-15T06:10:58.859Z,101460.94
2023-04-15T06:13:25.533Z,101487.44
2023-04-15T06:15:52.298Z,101476.00
2023-04-15T06:18:20.303Z,101457.25
2023-04-15T06:20:47.061Z,101482.06
2023-04-15T06:23:13.626Z,101473.41
2023-04-15T06:25:40.173Z,101490.13
2023-04-15T06:28:07.030Z,101513.94
2023-04-15T06:30:33.649Z,101508.53
2023-04-15T06:33:00.232Z,101501.34
2023-04-15T06:35:29.930Z,101477.63
2023-04-15T06:37:56.808Z,101499.41
2023-04-15T06:40:23.663Z,101486.09
2023-04-15T06:42:50.629Z,101501.25
2023-04-15T06:45:17.836Z,101521.25
2023-04-15T06:47:44.407Z,101536.34
2023-04-15T06:50:11.815Z,101534.72
2023-04-15T06:52:38.478Z,101538.03
2023-04-15T06:55:05.701Z,101542.81
2023-04-15T06:57:34.859Z,101539.66
2023-04-15T07:00:01.900Z,101539.84
2023-04-15T07:02:28.691Z,101551.91
2023-04-15T07:04:56.980Z,101550.69
2023-04-15T07:07:23.626Z,101533.13
2023-04-15T07:09:58.078Z,101528.53
2023-04-15T07:12:24.704Z,101568.50
2023-04-15T07:14:52.249Z,101569.13
2023-04-15T07:17:20.011Z,101560.97
2023-04-15T07:19:46.663Z,101572.56
2023-04-15T07:22:13.265Z,101576.28
2023-04-15T07:24:39.810Z,101578.09
2023-04-15T07:27:06.826Z,101584.53
2023-04-15T07:29:33.286Z,101585.25
2023-04-15T07:31:59.938Z,101576.84
2023-04-15T07:34:27.951Z,101588.97
2023-04-15T07:36:56.096Z,101594.81
2023-04-15T07:39:23.340Z,101588.34
2023-04-15T07:41:50.404Z,101606.56
2023-04-15T07:44:17.361Z,101614.03
2023-04-15T07:46:44.124Z,101591.06
2023-04-15T07:49:11.052Z,101614.88
2023-04-15T07:51:38.443Z,101607.56
2023-04-15T07:54:05.063Z,101597.50
2023-04-15T07:56:32.716Z,101630.69
2023-04-15T07:59:02.474Z,101614.03
2023-04-15T08:01:29.240Z,101629.91
2023-04-15T08:03:55.947Z,101633.88
2023-04-15T08:06:27.318Z,101640.88
2023-04-15T08:08:55.086Z,101630.59
2023-04-15T08:11:24.685Z,101635.19
2023-04-15T08:13:52.566Z,101638.91
2023-04-15T08:16:25.213Z,101638.00
2023-04-15T08:18:55.424Z,101622.44
2023-04-15T08:21:22.777Z,101646.88
2023-04-15T08:23:51.928Z,101651.69
2023-04-15T08:26:21.603Z,101678.88
2023-04-15T08:28:49.233Z,101683.88
2023-04-15T08:31:18.998Z,101664.50
2023-04-15T08:33:46.940Z,101648.69
2023-04-15T08:36:15.022Z,101660.06
2023-04-15T08:38:41.937Z,101664.91
2023-04-15T08:41:23.935Z,101687.66
2023-04-15T08:44:05.785Z,101699.44
2023-04-15T08:46:34.913Z,101686.03
2023-04-15T08:49:05.922Z,101676.66
2023-04-15T08:51:33.963Z,101685.56
2023-04-15T08:54:01.834Z,101696.22
2023-04-15T08:56:33.342Z,101684.22
2023-04-15T08:59:00.910Z,101706.59
2023-04-15T09:01:28.254Z,101716.78
2023-04-15T09:03:57.187Z,101708.16
2023-04-15T09:06:27.336Z,101703.25
2023-04-15T09:08:54.159Z,101724.50
2023-04-15T09:11:27.644Z,101745.06
2023-04-15T09:13:54.559Z,101701.13
2023-04-15T09:16:21.385Z,101752.00
2023-04-15T09:18:48.285Z,101729.63
2023-04-15T09:21:17.832Z,101706.19
2023-04-15T09:23:58.717Z,101739.38
2023-04-15T09:26:40.318Z,101730.34
2023-04-15T09:29:09.486Z,101742.41
2023-04-15T09:31:39.895Z,101745.06
2023-04-15T09:34:07.393Z,101771.25
2023-04-15T09:36:53.017Z,101775.31
2023-04-15T09:39:20.034Z,101766.03
2023-04-15T09:42:03.839Z,101749.34
2023-04-15T09:44:30.867Z,101775.66
2023-04-15T09:47:03.749Z,101780.09
2023-04-15T09:49:30.528Z,101766.28
2023-04-15T09:52:05.520Z,101756.91
2023-04-15T09:54:37.867Z,101772.94
2023-04-15T09:57:10.539Z,101789.44
2023-04-15T09:59:41.143Z,101784.47
2023-04-15T10:02:08.052Z,101792.34
2023-04-15T10:04:39.824Z,101791.25
2023-04-15T10:07:11.854Z,101796.53
2023-04-15T10:09:39.781Z,101816.22
2023-04-15T10:12:06.618Z,101790.38
2023-04-15T10:14:39.146Z,101778.84
2023-04-15T10:17:07.919Z,101806.25
2023-04-15T10:19:40.059Z,101795.06
2023-04-15T10:22:09.262Z,101796.06
2023-04-15T10:24:39.621Z,101783.75
2023-04-15T10:27:07.062Z,101789.41
2023-04-15T10:29:34.611Z,101795.16
2023-04-15T10:32:02.287Z,101792.91
2023-04-15T10:34:31.201Z,101803.13
2023-04-15T10:37:04.097Z,101804.03
2023-04-15T10:39:38.684Z,101830.53
2023-04-15T10:42:13.260Z,101837.78
2023-04-15T10:44:43.537Z,101820.13
2023-04-15T10:47:12.770Z,101812.84
2023-04-15T10:49:50.600Z,101840.75
2023-04-15T10:52:22.908Z,101855.81
2023-04-15T10:54:50.779Z,101826.53
2023-04-15T10:57:23.300Z,101822.50
2023-04-15T10:59:58.939Z,101846.13
2023-04-15T11:02:55.747Z,101853.84
2023-04-15T11:05:41.703Z,101858.06
2023-04-15T11:08:09.913Z,101866.19
2023-04-15T11:10:36.803Z,101835.91
2023-04-15T11:13:18.125Z,101852.69
2023-04-15T11:15:46.380Z,101843.03
2023-04-15T11:18:22.258Z,101874.44
2023-04-15T11:20:54.889Z,101858.94
2023-04-15T11:23:44.322Z,101852.78
2023-04-15T11:26:12.454Z,101871.25
2023-04-15T11:28:41.162Z,101887.09
2023-04-15T11:31:11.379Z,101879.28
2023-04-15T11:33:44.603Z,101868.06
2023-04-15T11:36:11.351Z,101881.41
2023-04-15T11:38:38.193Z,101887.78
2023-04-15T11:41:04.940Z,101891.00
2023-04-15T11:43:32.510Z,101855.81
2023-04-15T11:46:04.839Z,101899.19
2023-04-15T11:48:36.465Z,101901.84
2023-04-15T11:51:08.756Z,101875.63
2023-04-15T11:53:42.971Z,101904.09
2023-04-15T11:56:11.829Z,101903.63
2023-04-15T11:58:40.042Z,101903.13
2023-04-15T12:01:08.038Z,101891.59
2023-04-15T12:03:44.156Z,101889.09
2023-04-15T12:06:24.752Z,101901.19
2023-04-15T12:09:00.719Z,101907.38
2023-04-15T12:11:42.128Z,101896.59
2023-04-15T12:14:31.222Z,101901.56
2023-04-15T12:17:05.559Z,101916.97
2023-04-15T12:19:36.663Z,101928.97
2023-04-15T12:22:06.583Z,101933.09
2023-04-15T12:24:34.898Z,101911.09
2023-04-15T12:27:03.029Z,101930.00
2023-04-15T12:29:30.817Z,101918.44
2023-04-15T12:31:59.959Z,101902.50
2023-04-15T12:34:32.152Z,101938.66
2023-04-15T12:37:00.682Z,101933.75
2023-04-15T12:39:30.847Z,101914.06
2023-04-15T12:41:58.078Z,101946.97
2023-04-15T12:44:24.656Z,101960.81
2023-04-15T12:46:53.567Z,101936.25
2023-04-15T12:49:24.558Z,101958.31
2023-04-15T12:51:53.878Z,101966.25
2023-04-15T12:54:21.603Z,101962.88
2023-04-15T12:56:50.438Z,101959.53
2023-04-15T12:59:18.646Z,101979.22
2023-04-15T13:01:47.431Z,101946.31
2023-04-15T13:04:15.062Z,101967.84
2023-04-15T13:06:43.010Z,101992.91
2023-04-15T13:09:10.140Z,101963.00
2023-04-15T13:11:37.495Z,101988.41
2023-04-15T13:14:06.378Z,101981.09
2023-04-15T13:16:34.311Z,101990.59
2023-04-15T13:19:04.097Z,101981.88
2023-04-15T13:21:36.735Z,101983.13
2023-04-15T13:24:04.926Z,101990.19
2023-04-15T13:26:32.792Z,102008.38
2023-04-15T13:28:59.852Z,102002.69
2023-04-15T13:31:29.970Z,102017.28
2023-04-15T13:33:57.591Z,102001.56
2023-04-15T13:36:24.323Z,101999.88
2023-04-15T13:38:51.707Z,102006.19
2023-04-15T13:41:18.837Z,102008.09
2023-04-15T13:43:45.725Z,102018.41
2023-04-15T13:46:14.841Z,102004.13
2023-04-15T13:48:41.811Z,102030.47
2023-04-15T13:51:13.106Z,102048.03
2023-04-15T13:53:39.990Z,102022.66
2023-04-15T13:56:10.557Z,102048.78
2023-04-15T13:58:38.030Z,102028.22
2023-04-15T14:01:08.109Z,102034.03
2023-04-15T14:03:36.238Z,102042.41
2023-04-15T14:06:06.175Z,102047.13
2023-04-15T14:08:36.526Z,102073.22
2023-04-15T14:11:04.478Z,102081.47
2023-04-15T14:13:31.458Z,102081.03
2023-04-15T14:15:58.289Z,102047.03
2023-04-15T14:18:29.870Z,102069.53
2023-04-15T14:20:59.190Z,102095.75
2023-04-15T14:23:26.075Z,102108.50
2023-04-15T14:25:55.078Z,102098.09
2023-04-15T14:28:25.166Z,102093.69
2023-04-15T14:30:51.847Z,102090.63
2023-04-15T14:33:19.051Z,102119.63
2023-04-15T14:35:46.300Z,102077.75
2023-04-15T14:38:13.673Z,102082.84
2023-04-15T14:40:41.799Z,102079.81
2023-04-15T14:43:09.024Z,102113.09
2023-04-15T14:45:36.433Z,102073.75
2023-04-15T14:48:04.241Z,102096.84
2023-04-15T14:50:31.303Z,102104.28
2023-04-15T14:52:59.110Z,102100.22
2023-04-15T14:55:27.357Z,102114.94
2023-04-15T14:57:54.137Z,102124.03
2023-04-15T15:00:21.271Z,102113.72
2023-04-15T15:02:50.377Z,102146.78
2023-04-15T15:05:17.705Z,102113.50
2023-04-15T15:07:44.581Z,102136.75
2023-04-15T15:10:11.391Z,102115.53
2023-04-15T15:12:38.241Z,102119.44
2023-04-15T15:15:25.102Z,102096.53
2023-04-15T15:17:55.215Z,102129.31
2023-04-15T15:20:22.250Z,102139.31
2023-04-15T15:22:49.210Z,102127.84
2023-04-15T15:25:17.828Z,102139.97
2023-04-15T15:27:44.784Z,102116.06
2023-04-15T15:30:13.019Z,102119.38
2023-04-15T15:32:42.018Z,102136.72
2023-04-15T15:35:11.241Z,102147.25
2023-04-15T15:37:38.463Z,102165.91
2023-04-15T15:40:06.645Z,102141.69
2023-04-15T15:42:34.075Z,102146.69
2023-04-15T15:45:01.474Z,102176.78
2023-04-15T15:47:36.500Z,102195.84
2023-04-15T15:50:05.522Z,102157.75
2023-04-15T15:52:34.175Z,102165.06
2023-04-15T15:55:05.020Z,102178.78
2023-04-15T15:57:32.646Z,102176.06
2023-04-15T16:00:10.197Z,102166.53
2023-04-15T16:03:05.056Z,102166.34
2023-04-15T16:05:28.036Z,102193.84
2023-04-15T16:07:54.965Z,102168.13
2023-04-15T16:10:21.791Z,102165.22
2023-04-15T16:12:48.416Z,102190.31
2023-04-15T16:15:15.094Z,102178.50
2023-04-15T16:17:42.046Z,102188.22
2023-04-15T16:20:09.088Z,102207.34
2023-04-15T16:22:36.160Z,102191.31
2023-04-15T16:25:03.803Z,102174.03
2023-04-15T16:27:30.520Z,102187.31
2023-04-15T16:29:57.703Z,102188.16
2023-04-15T16:32:25.559Z,102219.41
2023-04-15T16:34:53.334Z,102199.72
2023-04-15T16:37:21.228Z,102201.44
2023-04-15T16:39:48.128Z,102202.66
2023-04-15T16:42:16.501Z,102202.88
2023-04-15T16:44:46.263Z,102194.22
2023-04-15T16:47:13.337Z,102218.47
2023-04-15T16:49:39.877Z,102214.94
2023-04-15T16:52:07.257Z,102210.75
2023-04-15T16:54:35.144Z,102243.41
2023-04-15T16:57:02.591Z,102238.00
2023-04-15T16:59:30.460Z,102246.09
2023-04-15T17:01:57.464Z,102252.31
2023-04-15T17:04:24.961Z,102226.94
2023-04-15T17:06:51.808Z,102251.88
2023-04-15T17:09:18.587Z,102236.31
2023-04-15T17:11:45.863Z,102255.28
2023-04-15T17:14:12.660Z,102247.84
2023-04-15T17:16:40.181Z,102280.69
2023-04-15T17:19:07.062Z,102278.97
2023-04-15T17:21:34.772Z,102281.72
2023-04-15T17:24:01.844Z,102250.03
2023-04-15T17:26:28.681Z,102251.81
2023-04-15T17:28:55.858Z,102253.47
2023-04-15T17:31:23.989Z,102269.28
2023-04-15T17:34:05.414Z,102274.50
2023-04-15T17:36:36.018Z,102266.88
2023-04-15T17:39:02.820Z,102249.63
2023-04-15T17:41:29.961Z,102253.81
2023-04-15T17:43:56.650Z,102277.09
2023-04-15T17:46:23.339Z,102257.31
2023-04-15T17:48:52.528Z,102313.53
2023-04-15T17:51:19.344Z,102285.50
2023-04-15T17:53:46.399Z,102278.94
2023-04-15T17:56:13.704Z,102280.81
2023-04-15T17:58:40.305Z,102304.00
2023-04-15T18:01:07.902Z,102305.81
2023-04-15T18:03:34.574Z,102300.44
2023-04-15T18:06:01.560Z,102281.00
2023-04-15T18:08:29.201Z,102288.16
2023-04-15T18:10:56.472Z,102297.63
2023-04-15T18:13:23.556Z,102300.34
2023-04-15T18:15:51.438Z,102287.47
2023-04-15T18:18:18.299Z,102285.56
2023-04-15T18:20:44.891Z,102323.38
2023-04-15T18:23:11.639Z,102318.94
2023-04-15T18:25:43.684Z,102332.09
2023-04-15T18:28:11.056Z,102327.72
2023-04-15T18:30:37.797Z,102326.75
2023-04-15T18:33:07.169Z,102325.91
2023-04-15T18:35:35.196Z,102287.22
2023-04-15T18:38:02.494Z,102315.66
2023-04-15T18:40:30.467Z,102342.91
2023-04-15T18:42:57.074Z,102302.28
2023-04-15T18:45:23.990Z,102331.66
2023-04-15T18:47:53.444Z,102333.38
2023-04-15T18:50:20.459Z,102352.31
2023-04-15T18:52:48.400Z,102346.16
2023-04-15T18:55:17.101Z,102358.41
2023-04-15T18:57:46.928Z,102361.91
2023-04-15T19:00:17.482Z,102362.88
2023-04-15T19:02:44.429Z,102328.94
2023-04-15T19:05:14.343Z,102334.94
2023-04-15T19:07:41.488Z,102335.09
2023-04-15T19:10:08.738Z,102351.66
2023-04-15T19:12:36.961Z,102360.53
2023-04-15T19:15:07.446Z,102330.41
2023-04-15T19:17:35.312Z,102338.00
2023-04-15T19:20:02.440Z,102360.59
2023-04-15T19:22:29.895Z,102383.91
2023-04-15T19:24:56.840Z,102369.28
2023-04-15T19:27:29.435Z,102352.78
2023-04-15T19:29:56.397Z,102394.63
2023-04-15T19:32:23.120Z,102365.13
2023-04-15T19:34:50.822Z,102389.25
2023-04-15T19:37:18.004Z,102384.88
2023-04-15T19:39:44.930Z,102343.28
2023-04-15T19:42:11.855Z,102385.94
2023-04-15T19:44:43.006Z,102373.91
2023-04-15T19:47:10.709Z,102367.34
2023-04-15T19:49:38.274Z,102373.00
2023-04-15T19:52:10.468Z,102366.28
2023-04-15T19:54:39.671Z,102390.63
2023-04-15T19:57:14.119Z,102389.34
2023-04-15T19:59:41.348Z,102388.94
2023-04-15T20:02:08.222Z,102411.44
2023-04-15T20:04:35.226Z,102418.59
2023-04-15T20:07:02.601Z,102409.72
2023-04-15T20:09:31.828Z,102413.31
2023-04-15T20:12:09.898Z,102416.72
2023-04-15T20:14:45.093Z,102414.44
2023-04-15T20:17:11.677Z,102410.72
2023-04-15T20:19:38.234Z,102394.88
2023-04-15T20:22:05.449Z,102395.69
2023-04-15T20:24:33.297Z,102399.25
2023-04-15T20:26:59.729Z,102412.06
2023-04-15T20:29:27.814Z,102418.34
2023-04-15T20:31:54.341Z,102388.59
2023-04-15T20:34:21.074Z,102415.66
2023-04-15T20:36:47.969Z,102409.66
2023-04-15T20:39:14.639Z,102407.91
2023-04-15T20:41:41.191Z,102406.88
2023-04-15T20:44:07.902Z,102407.78
2023-04-15T20:46:34.673Z,102412.25
2023-04-15T20:49:01.227Z,102412.38
2023-04-15T20:51:28.017Z,102419.97
2023-04-15T20:53:55.771Z,102406.22
2023-04-15T20:56:22.350Z,102408.59
2023-04-15T20:58:49.103Z,102424.34
2023-04-15T21:01:16.810Z,102424.19
2023-04-15T21:03:43.911Z,102422.56
2023-04-15T21:06:10.579Z,102423.44
2023-04-15T21:08:36.985Z,102414.78
2023-04-15T21:11:03.553Z,102425.31
2023-04-15T21:13:30.543Z,102420.03
2023-04-15T21:15:57.091Z,102425.00
2023-04-15T21:18:24.046Z,102412.97
2023-04-15T21:21:02.019Z,102418.91
2023-04-15T21:23:29.836Z,102423.34
2023-04-15T21:25:58.506Z,102414.78
2023-04-15T21:28:28.566Z,102425.97
2023-04-15T21:30:56.303Z,102423.28
2023-04-15T21:33:23.187Z,102428.72
2023-04-15T21:35:49.714Z,102420.63
2023-04-15T21:38:16.417Z,102426.16
2023-04-15T21:40:42.975Z,102435.72
2023-04-15T21:43:10.142Z,102435.13
2023-04-15T21:45:39.403Z,102425.63
2023-04-15T21:48:08.286Z,102435.06
2023-04-15T21:50:38.372Z,102440.66
2023-04-15T21:53:07.716Z,102444.84
2023-04-15T21:55:34.627Z,102452.69
2023-04-15T21:58:01.514Z,102445.66
2023-04-15T22:00:28.317Z,102443.16
2023-04-15T22:02:55.018Z,102456.50
2023-04-15T22:05:22.210Z,102446.03
2023-04-15T22:07:49.031Z,102452.63
2023-04-15T22:10:16.115Z,102454.63
2023-04-15T22:12:43.052Z,102447.72
2023-04-15T22:15:09.913Z,102458.94
2023-04-15T22:17:36.498Z,102447.72
2023-04-15T22:20:03.727Z,102448.53
2023-04-15T22:22:43.330Z,102454.44
2023-04-15T22:25:11.843Z,102471.19
2023-04-15T22:27:38.645Z,102451.06
2023-04-15T22:30:06.108Z,102470.38
2023-04-15T22:32:33.236Z,102456.50
2023-04-15T22:35:01.551Z,102459.66
2023-04-15T22:37:30.907Z,102464.03
2023-04-15T22:39:57.870Z,102464.06
2023-04-15T22:42:24.667Z,102478.09
2023-04-15T22:44:51.567Z,102477.34
2023-04-15T22:47:20.791Z,102476.63
2023-04-15T22:49:47.297Z,102480.13
2023-04-15T22:52:23.315Z,102476.47
2023-04-15T22:54:56.296Z,102495.94
2023-04-15T22:57:22.929Z,102494.97
2023-04-15T22:59:49.783Z,102489.78
2023-04-15T23:02:17.416Z,102489.94
2023-04-15T23:04:44.984Z,102504.97
2023-04-15T23:07:11.825Z,102505.09
2023-04-15T23:09:39.265Z,102504.22
2023-04-15T23:12:07.028Z,102510.34
2023-04-15T23:14:33.653Z,102513.06
2023-04-15T23:17:00.833Z,102514.69
2023-04-15T23:19:27.544Z,102510.47
2023-04-15T23:21:54.348Z,102509.75
2023-04-15T23:24:21.634Z,102512.16
2023-04-15T23:26:48.461Z,102514.13
2023-04-15T23:29:15.441Z,102502.69
2023-04-15T23:31:42.694Z,102509.66
2023-04-15T23:34:10.334Z,102510.56
2023-04-15T23:36:39.157Z,102517.41
2023-04-15T23:39:05.736Z,102516.56
2023-04-15T23:41:32.305Z,102520.13
2023-04-15T23:43:59.076Z,102510.78
2023-04-15T23:46:26.070Z,102516.53
2023-04-15T23:48:54.876Z,102504.41
2023-04-15T23:51:21.397Z,102518.50
2023-04-15T23:53:49.000Z,102521.19
2023-04-15T23:56:16.023Z,102522.09
2023-04-15T23:58:43.010Z,102507.47
